createdAt,value
2023-07-17T00:00:22.151Z,100.00
2023-07-17T00:02:50.174Z,100.00
2023-07-17T00:05:18.884Z,100.00
2023-07-17T00:07:47.443Z,100.00
2023-07-17T00:10:15.629Z,100.00
2023-07-17T00:12:42.730Z,100.00
2023-07-17T00:15:10.232Z,100.00
2023-07-17T00:17:38.212Z,100.00
2023-07-17T00:20:07.986Z,100.00
2023-07-17T00:22:38.112Z,100.00
2023-07-17T00:25:06.269Z,100.00
2023-07-17T00:27:36.471Z,100.00
2023-07-17T00:30:04.797Z,100.00
2023-07-17T00:32:32.886Z,100.00
2023-07-17T00:35:00.521Z,100.00
2023-07-17T00:37:28.232Z,100.00
2023-07-17T00:39:55.717Z,100.00
2023-07-17T00:42:23.957Z,100.00
2023-07-17T00:44:51.601Z,100.00
2023-07-17T00:47:20.663Z,100.00
2023-07-17T00:49:49.893Z,100.00
2023-07-17T00:52:18.490Z,100.00
2023-07-17T00:54:47.235Z,100.00
2023-07-17T00:57:15.537Z,100.00
2023-07-17T00:59:43.372Z,100.00
2023-07-17T01:02:11.635Z,100.00
2023-07-17T01:04:43.070Z,100.00
2023-07-17T01:07:11.002Z,100.00
2023-07-17T01:09:38.922Z,100.00
2023-07-17T01:12:07.091Z,100.00
2023-07-17T01:14:36.110Z,100.00
2023-07-17T01:17:03.953Z,100.00
2023-07-17T01:19:31.584Z,100.00
2023-07-17T01:22:02.793Z,100.00
2023-07-17T01:24:31.345Z,100.00
2023-07-17T01:26:59.238Z,100.00
2023-07-17T01:29:26.904Z,100.00
2023-07-17T01:31:54.874Z,100.00
2023-07-17T01:34:32.846Z,100.00
2023-07-17T01:37:00.456Z,100.00
2023-07-17T01:39:27.960Z,100.00
2023-07-17T01:41:55.080Z,100.00
2023-07-17T01:44:22.740Z,100.00
2023-07-17T01:46:50.225Z,100.00
2023-07-17T01:49:17.434Z,100.00
2023-07-17T01:51:45.053Z,100.00
2023-07-17T01:54:13.436Z,100.00
2023-07-17T01:56:40.871Z,100.00
2023-07-17T01:59:08.681Z,100.00
2023-07-17T02:01:36.149Z,100.00
2023-07-17T02:04:03.916Z,100.00
2023-07-17T02:06:32.280Z,100.00
2023-07-17T02:08:59.486Z,100.00
2023-07-17T02:11:30.540Z,100.00
2023-07-17T02:13:57.783Z,100.00
2023-07-17T02:16:26.612Z,100.00
2023-07-17T02:18:54.845Z,100.00
2023-07-17T02:21:21.996Z,100.00
2023-07-17T02:23:49.768Z,100.00
2023-07-17T02:26:17.791Z,100.00
2023-07-17T02:28:45.440Z,100.00
2023-07-17T02:31:12.854Z,100.00
2023-07-17T02:33:40.752Z,100.00
2023-07-17T02:36:10.054Z,100.00
2023-07-17T02:38:37.222Z,100.00
2023-07-17T02:41:04.744Z,100.00
2023-07-17T02:43:32.570Z,100.00
2023-07-17T02:46:00.422Z,100.00
2023-07-17T02:48:27.826Z,100.00
2023-07-17T02:50:55.543Z,100.00
2023-07-17T02:53:22.747Z,100.00
2023-07-17T02:55:50.666Z,100.00
2023-07-17T02:58:20.629Z,100.00
2023-07-17T03:00:48.248Z,100.00
2023-07-17T03:03:15.735Z,100.00
2023-07-17T03:05:44.015Z,100.00
2023-07-17T03:08:11.473Z,100.00
2023-07-17T03:10:39.984Z,100.00
2023-07-17T03:13:07.284Z,100.00
2023-07-17T03:15:35.029Z,100.00
2023-07-17T03:18:04.385Z,100.00
2023-07-17T03:20:31.936Z,100.00
2023-07-17T03:23:00.003Z,100.00
2023-07-17T03:25:27.688Z,100.00
2023-07-17T03:27:54.824Z,100.00
2023-07-17T03:30:27.600Z,100.00
2023-07-17T03:32:56.187Z,100.00
2023-07-17T03:35:23.434Z,100.00
2023-07-17T03:37:50.894Z,100.00
2023-07-17T03:40:18.820Z,100.00
2023-07-17T03:42:46.865Z,100.00
2023-07-17T03:45:14.871Z,100.00
2023-07-17T03:47:42.404Z,100.00
2023-07-17T03:50:10.705Z,100.00
2023-07-17T03:52:38.112Z,97.75
2023-07-17T03:55:06.571Z,92.48
2023-07-17T03:57:33.726Z,88.68
2023-07-17T04:00:00.983Z,84.34
2023-07-17T04:02:29.307Z,79.80
2023-07-17T04:04:57.989Z,76.83
2023-07-17T04:07:25.648Z,75.13
2023-07-17T04:09:52.807Z,76.31
2023-07-17T04:12:21.045Z,75.06
2023-07-17T04:14:50.102Z,73.40
2023-07-17T04:17:17.464Z,72.67
2023-07-17T04:19:44.982Z,74.12
2023-07-17T04:22:13.012Z,75.29
2023-07-17T04:24:40.270Z,78.79
2023-07-17T04:27:08.298Z,81.44
2023-07-17T04:29:35.508Z,83.45
2023-07-17T04:32:03.397Z,83.50
2023-07-17T04:34:32.325Z,84.13
2023-07-17T04:36:59.711Z,85.22
2023-07-17T04:39:28.474Z,85.33
2023-07-17T04:41:57.544Z,85.26
2023-07-17T04:44:24.962Z,84.78
2023-07-17T04:46:52.785Z,81.21
2023-07-17T04:49:20.346Z,80.73
2023-07-17T04:51:48.958Z,80.26
2023-07-17T04:54:16.672Z,83.08
2023-07-17T04:56:44.901Z,81.82
2023-07-17T04:59:13.752Z,80.49
2023-07-17T05:01:42.226Z,79.82
2023-07-17T05:04:10.271Z,76.98
2023-07-17T05:06:37.692Z,76.75
2023-07-17T05:09:04.895Z,77.86
2023-07-17T05:11:33.792Z,78.00
2023-07-17T05:14:01.101Z,77.05
2023-07-17T05:16:30.518Z,70.44
2023-07-17T05:18:58.679Z,58.49
2023-07-17T05:21:29.782Z,47.72
2023-07-17T05:23:58.739Z,41.54
2023-07-17T05:26:26.979Z,36.69
2023-07-17T05:29:01.842Z,34.95
2023-07-17T05:31:30.439Z,34.01
2023-07-17T05:33:58.224Z,32.05
2023-07-17T05:36:25.751Z,30.19
2023-07-17T05:38:53.771Z,29.17
2023-07-17T05:41:21.746Z,28.45
2023-07-17T05:43:49.114Z,28.46
2023-07-17T05:46:17.327Z,28.10
2023-07-17T05:48:45.001Z,28.41
2023-07-17T05:51:12.326Z,28.44
2023-07-17T05:53:40.880Z,26.23
2023-07-17T05:56:08.502Z,27.61
2023-07-17T05:58:35.902Z,28.51
2023-07-17T06:01:03.889Z,28.47
2023-07-17T06:03:31.543Z,28.03
2023-07-17T06:05:58.913Z,28.22
2023-07-17T06:08:26.522Z,28.79
2023-07-17T06:10:54.079Z,27.93
2023-07-17T06:13:21.950Z,29.64
2023-07-17T06:15:49.923Z,27.29
2023-07-17T06:18:18.339Z,26.17
2023-07-17T06:20:46.088Z,26.02
2023-07-17T06:23:13.300Z,25.88
2023-07-17T06:25:41.286Z,25.96
2023-07-17T06:28:09.595Z,25.71
2023-07-17T06:30:38.035Z,26.16
2023-07-17T06:33:06.006Z,25.75
2023-07-17T06:35:33.494Z,26.19
2023-07-17T06:38:00.725Z,25.59
2023-07-17T06:40:28.737Z,27.48
2023-07-17T06:42:57.179Z,28.58
2023-07-17T06:45:25.181Z,28.66
2023-07-17T06:47:52.648Z,27.71
2023-07-17T06:50:21.133Z,27.19
2023-07-17T06:52:48.322Z,25.20
2023-07-17T06:55:17.342Z,26.81
2023-07-17T06:57:44.808Z,26.38
2023-07-17T07:00:12.828Z,26.56
2023-07-17T07:02:41.343Z,24.18
2023-07-17T07:05:08.702Z,26.61
2023-07-17T07:07:35.845Z,24.50
2023-07-17T07:10:04.062Z,27.26
2023-07-17T07:12:31.336Z,29.39
2023-07-17T07:14:59.128Z,27.32
2023-07-17T07:17:26.607Z,26.04
2023-07-17T07:19:55.646Z,26.35
2023-07-17T07:22:23.141Z,26.05
2023-07-17T07:24:50.672Z,24.85
2023-07-17T07:27:19.324Z,24.81
2023-07-17T07:29:46.577Z,24.44
2023-07-17T07:32:14.369Z,25.15
2023-07-17T07:34:41.551Z,25.91
2023-07-17T07:37:10.847Z,23.90
2023-07-17T07:39:41.674Z,25.64
2023-07-17T07:42:09.335Z,24.97
2023-07-17T07:44:36.641Z,26.34
2023-07-17T07:47:06.469Z,26.69
2023-07-17T07:49:37.267Z,24.67
2023-07-17T07:52:06.422Z,25.59
2023-07-17T07:54:33.984Z,28.10
2023-07-17T07:57:04.179Z,28.18
2023-07-17T07:59:31.701Z,25.42
2023-07-17T08:02:01.051Z,25.71
2023-07-17T08:04:29.713Z,25.51
2023-07-17T08:06:57.432Z,25.96
2023-07-17T08:09:24.761Z,26.87
2023-07-17T08:11:54.060Z,28.27
2023-07-17T08:14:24.271Z,25.77
2023-07-17T08:16:52.248Z,25.02
2023-07-17T08:19:20.398Z,25.77
2023-07-17T08:21:49.620Z,27.67
2023-07-17T08:24:19.570Z,27.79
2023-07-17T08:26:49.620Z,27.83
2023-07-17T08:29:19.213Z,31.37
2023-07-17T08:31:48.775Z,29.35
2023-07-17T08:34:18.450Z,27.38
2023-07-17T08:36:47.565Z,29.37
2023-07-17T08:39:14.713Z,28.59
2023-07-17T08:41:46.272Z,27.37
2023-07-17T08:44:18.236Z,26.03
2023-07-17T08:46:48.068Z,26.77
2023-07-17T08:49:19.978Z,28.63
2023-07-17T08:51:47.906Z,29.85
2023-07-17T08:54:28.512Z,29.55
2023-07-17T08:57:05.462Z,28.73
2023-07-17T09:03:04.292Z,27.49
2023-07-17T09:05:32.244Z,28.58
2023-07-17T09:07:59.357Z,31.27
2023-07-17T09:10:26.531Z,29.39
2023-07-17T09:12:57.654Z,28.31
2023-07-17T09:15:26.560Z,29.01
2023-07-17T09:17:54.817Z,28.67
2023-07-17T09:20:22.884Z,26.91
2023-07-17T09:22:51.450Z,28.49
2023-07-17T09:25:19.205Z,33.27
2023-07-17T09:27:51.041Z,33.18
2023-07-17T09:30:20.805Z,31.82
2023-07-17T09:32:50.158Z,31.90
2023-07-17T09:35:24.594Z,31.56
2023-07-17T09:37:52.324Z,31.38
2023-07-17T09:40:20.556Z,32.15
2023-07-17T09:42:57.588Z,30.92
2023-07-17T09:45:25.809Z,30.79
2023-07-17T09:47:53.805Z,30.05
2023-07-17T09:50:23.934Z,30.71
2023-07-17T09:52:53.637Z,35.16
2023-07-17T09:55:26.885Z,33.05
2023-07-17T09:57:59.251Z,34.04
2023-07-17T10:00:28.090Z,32.39
2023-07-17T10:03:14.671Z,31.64
2023-07-17T10:05:42.990Z,31.17
2023-07-17T10:08:12.119Z,30.38
2023-07-17T10:10:39.910Z,32.44
2023-07-17T10:13:08.384Z,32.48
2023-07-17T10:15:37.881Z,31.95
2023-07-17T10:18:10.797Z,31.44
2023-07-17T10:20:39.861Z,32.35
2023-07-17T10:26:37.808Z,30.97
2023-07-17T10:29:07.170Z,31.97
2023-07-17T10:31:35.313Z,33.69
2023-07-17T10:34:06.300Z,33.65
2023-07-17T10:36:41.936Z,33.70
2023-07-17T10:39:16.221Z,35.31
2023-07-17T10:41:44.480Z,34.33
2023-07-17T10:44:20.342Z,35.88
2023-07-17T10:46:48.681Z,36.00
2023-07-17T10:49:18.358Z,33.68
2023-07-17T10:51:48.517Z,33.78
2023-07-17T10:54:40.631Z,33.30
2023-07-17T10:57:08.188Z,32.55
2023-07-17T10:59:36.027Z,33.26
2023-07-17T11:02:05.003Z,32.23
2023-07-17T11:04:34.952Z,31.67
2023-07-17T11:07:10.094Z,31.78
2023-07-17T11:09:44.107Z,31.81
2023-07-17T11:12:14.886Z,32.58
2023-07-17T11:14:42.682Z,33.04
2023-07-17T11:17:13.034Z,33.30
2023-07-17T11:19:41.488Z,31.17
2023-07-17T11:22:09.242Z,31.01
2023-07-17T11:24:37.430Z,34.34
2023-07-17T11:27:08.630Z,33.17
2023-07-17T11:29:41.302Z,33.40
2023-07-17T11:32:09.390Z,33.98
2023-07-17T11:34:37.960Z,32.18
2023-07-17T11:37:06.051Z,33.94
2023-07-17T11:39:35.285Z,32.68
2023-07-17T11:42:02.525Z,32.47
2023-07-17T11:44:34.168Z,32.02
2023-07-17T11:47:07.109Z,31.60
2023-07-17T11:49:36.866Z,31.37
2023-07-17T11:52:19.561Z,33.12
2023-07-17T11:54:48.264Z,30.77
2023-07-17T11:57:18.191Z,32.24
2023-07-17T11:59:46.882Z,32.32
2023-07-17T12:02:14.054Z,32.29
2023-07-17T12:04:43.293Z,31.92
2023-07-17T12:07:20.876Z,31.26
2023-07-17T12:09:51.601Z,30.18
2023-07-17T12:12:19.385Z,29.96
2023-07-17T12:15:47.037Z,31.17
2023-07-17T12:18:14.488Z,30.92
2023-07-17T12:20:42.031Z,31.82
2023-07-17T12:23:10.236Z,30.77
2023-07-17T12:25:40.992Z,31.15
2023-07-17T12:28:09.551Z,32.26
2023-07-17T12:30:37.024Z,31.87
2023-07-17T12:33:05.280Z,32.25
2023-07-17T12:35:32.467Z,32.77
2023-07-17T12:38:00.857Z,32.43
2023-07-17T12:40:30.233Z,34.97
2023-07-17T12:42:58.596Z,33.23
2023-07-17T12:45:25.804Z,33.64
2023-07-17T12:47:53.285Z,34.22
2023-07-17T12:50:22.174Z,35.11
2023-07-17T12:52:49.296Z,34.49
2023-07-17T12:55:17.797Z,33.08
2023-07-17T12:57:46.645Z,34.23
2023-07-17T13:00:14.291Z,34.26
2023-07-17T13:02:43.512Z,35.06
2023-07-17T13:05:10.697Z,35.03
2023-07-17T13:07:38.339Z,33.43
2023-07-17T13:10:08.652Z,34.08
2023-07-17T13:12:47.762Z,34.81
2023-07-17T13:15:18.055Z,33.00
2023-07-17T13:17:46.816Z,32.95
2023-07-17T13:20:14.523Z,31.49
2023-07-17T13:22:42.278Z,31.47
2023-07-17T13:25:10.205Z,34.53
2023-07-17T13:27:37.707Z,35.65
2023-07-17T13:30:07.005Z,36.65
2023-07-17T13:32:34.735Z,37.31
2023-07-17T13:35:01.977Z,37.35
2023-07-17T13:37:31.874Z,36.60
2023-07-17T13:40:00.312Z,36.90
2023-07-17T13:42:27.421Z,37.33
2023-07-17T13:44:59.953Z,37.52
2023-07-17T13:47:30.099Z,37.49
2023-07-17T13:49:57.770Z,37.93
2023-07-17T13:55:55.196Z,38.88
2023-07-17T14:01:53.807Z,39.22
2023-07-17T14:04:21.369Z,39.67
2023-07-17T14:06:49.749Z,44.94
2023-07-17T14:09:17.007Z,50.00
2023-07-17T14:11:46.100Z,54.33
2023-07-17T14:14:13.502Z,68.34
2023-07-17T14:16:40.789Z,76.38
2023-07-17T14:19:08.250Z,82.97
2023-07-17T14:21:36.089Z,86.89
2023-07-17T14:24:04.693Z,87.54
2023-07-17T14:26:32.373Z,91.34
2023-07-17T14:29:00.451Z,91.38
2023-07-17T14:31:27.619Z,90.90
2023-07-17T14:33:55.904Z,92.23
2023-07-17T14:36:25.632Z,94.14
2023-07-17T14:38:57.557Z,93.50
2023-07-17T14:41:30.421Z,94.45
2023-07-17T14:44:00.020Z,91.59
2023-07-17T14:46:30.883Z,90.80
2023-07-17T14:52:29.737Z,93.83
2023-07-17T14:54:59.040Z,86.24
2023-07-17T14:57:26.650Z,92.80
2023-07-17T14:59:54.474Z,90.58
2023-07-17T15:02:22.505Z,87.58
2023-07-17T15:04:50.264Z,87.46
2023-07-17T15:07:17.977Z,85.61
2023-07-17T15:09:48.708Z,83.98
2023-07-17T15:12:16.595Z,84.80
2023-07-17T15:14:44.306Z,82.52
2023-07-17T15:17:12.316Z,77.69
2023-07-17T15:19:42.938Z,78.70
2023-07-17T15:22:13.107Z,75.24
2023-07-17T15:24:41.940Z,77.51
2023-07-17T15:27:12.406Z,73.87
2023-07-17T15:29:43.246Z,70.96
2023-07-17T15:32:13.284Z,67.54
2023-07-17T15:34:41.527Z,67.18
2023-07-17T15:37:09.585Z,65.05
2023-07-17T15:39:38.932Z,66.00
2023-07-17T15:42:08.074Z,62.92
2023-07-17T15:44:35.809Z,61.09
2023-07-17T15:47:04.137Z,63.76
2023-07-17T15:49:31.861Z,62.61
2023-07-17T15:51:59.571Z,61.52
2023-07-17T15:54:27.690Z,60.36
2023-07-17T15:56:55.371Z,59.33
2023-07-17T15:59:23.048Z,57.90
2023-07-17T16:01:51.508Z,57.52
2023-07-17T16:04:19.585Z,58.06
2023-07-17T16:06:47.591Z,56.88
2023-07-17T16:09:15.528Z,57.45
2023-07-17T16:11:44.190Z,58.28
2023-07-17T16:14:12.770Z,57.76
2023-07-17T16:16:40.674Z,56.39
2023-07-17T16:19:09.349Z,57.97
2023-07-17T16:21:37.248Z,57.96
2023-07-17T16:24:05.850Z,57.08
2023-07-17T16:26:34.869Z,56.79
2023-07-17T16:29:17.847Z,54.74
2023-07-17T16:31:48.046Z,52.95
2023-07-17T16:34:15.790Z,52.81
2023-07-17T16:40:14.250Z,50.97
2023-07-17T16:42:41.939Z,51.19
2023-07-17T16:45:10.037Z,50.70
2023-07-17T16:47:37.824Z,51.02
2023-07-17T16:50:07.175Z,50.75
2023-07-17T16:52:35.092Z,50.76
2023-07-17T16:55:03.056Z,50.22
2023-07-17T16:57:32.651Z,50.11
2023-07-17T17:00:04.094Z,50.29
2023-07-17T17:02:35.538Z,51.09
2023-07-17T17:05:06.072Z,51.87
2023-07-17T17:07:36.171Z,52.08
2023-07-17T17:10:04.465Z,52.78
2023-07-17T17:12:33.673Z,53.82
2023-07-17T17:15:02.936Z,54.16
2023-07-17T17:17:33.307Z,54.02
2023-07-17T17:20:02.197Z,55.35
2023-07-17T17:22:30.134Z,56.94
2023-07-17T17:24:58.516Z,57.47
2023-07-17T17:27:28.262Z,56.88
2023-07-17T17:29:59.177Z,56.94
2023-07-17T17:32:29.452Z,57.17
2023-07-17T17:34:58.129Z,57.74
2023-07-17T17:37:26.753Z,57.30
2023-07-17T17:40:10.035Z,57.29
2023-07-17T17:42:40.299Z,57.30
2023-07-17T17:45:11.487Z,55.63
2023-07-17T17:51:09.559Z,55.15
2023-07-17T17:53:38.994Z,54.56
2023-07-17T17:56:07.468Z,55.55
2023-07-17T17:58:35.913Z,55.30
2023-07-17T18:04:39.033Z,55.35
2023-07-17T18:07:10.419Z,54.58
2023-07-17T18:09:38.609Z,55.74
2023-07-17T18:12:11.736Z,55.93
2023-07-17T18:14:41.473Z,56.17
2023-07-17T18:17:09.774Z,56.83
2023-07-17T18:19:40.103Z,56.72
2023-07-17T18:22:09.787Z,57.17
2023-07-17T18:24:38.092Z,56.94
2023-07-17T18:27:09.198Z,57.53
2023-07-17T18:29:37.971Z,58.36
2023-07-17T18:32:06.784Z,58.53
2023-07-17T18:34:34.801Z,58.72
2023-07-17T18:37:03.440Z,58.91
2023-07-17T18:39:32.576Z,58.96
2023-07-17T18:42:01.463Z,60.05
2023-07-17T18:44:30.927Z,60.05
2023-07-17T18:47:04.284Z,60.65
2023-07-17T18:49:35.032Z,61.19
2023-07-17T18:52:05.041Z,61.54
2023-07-17T18:54:34.933Z,62.19
2023-07-17T18:57:03.957Z,62.58
2023-07-17T18:59:32.536Z,63.09
2023-07-17T19:02:01.627Z,63.72
2023-07-17T19:04:35.039Z,63.65
2023-07-17T19:07:19.222Z,63.45
2023-07-17T19:09:48.378Z,64.62
2023-07-17T19:12:17.798Z,65.84
2023-07-17T19:14:46.480Z,66.37
2023-07-17T19:17:15.579Z,65.91
2023-07-17T19:19:46.426Z,66.46
2023-07-17T19:22:16.616Z,66.60
2023-07-17T19:24:45.593Z,66.69
2023-07-17T19:27:14.500Z,67.26
2023-07-17T19:29:43.432Z,67.48
2023-07-17T19:32:14.682Z,67.35
2023-07-17T19:38:14.639Z,68.22
2023-07-17T19:40:43.792Z,67.75
2023-07-17T19:43:24.652Z,69.04
2023-07-17T19:45:54.165Z,69.15
2023-07-17T19:48:22.606Z,69.31
2023-07-17T19:50:53.144Z,70.10
2023-07-17T19:53:22.343Z,70.75
2023-07-17T19:55:51.486Z,70.68
2023-07-17T19:58:21.221Z,71.34
2023-07-17T20:00:50.520Z,71.69
2023-07-17T20:03:23.591Z,72.14
2023-07-17T20:05:52.671Z,72.67
2023-07-17T20:08:24.636Z,73.87
2023-07-17T20:10:53.526Z,74.67
2023-07-17T20:13:22.838Z,74.68
2023-07-17T20:15:52.180Z,75.26
2023-07-17T20:18:20.681Z,76.04
2023-07-17T20:20:50.333Z,76.55
2023-07-17T20:23:18.834Z,77.50
2023-07-17T20:25:47.274Z,77.81
2023-07-17T20:28:22.633Z,77.53
2023-07-17T20:30:51.480Z,77.60
2023-07-17T20:33:21.727Z,77.48
2023-07-17T20:35:51.963Z,78.98
2023-07-17T20:38:24.116Z,80.41
2023-07-17T20:40:53.088Z,81.37
2023-07-17T20:43:23.209Z,82.05
2023-07-17T20:45:53.978Z,83.35
2023-07-17T20:48:23.727Z,83.37
2023-07-17T20:51:11.833Z,82.35
2023-07-17T20:53:41.935Z,81.34
2023-07-17T20:56:10.792Z,81.46
2023-07-17T20:58:39.342Z,80.86
2023-07-17T21:01:09.662Z,80.29
2023-07-17T21:03:37.385Z,81.13
2023-07-17T21:06:06.371Z,81.32
2023-07-17T21:08:34.012Z,82.39
2023-07-17T21:11:03.474Z,81.39
2023-07-17T21:13:32.380Z,82.80
2023-07-17T21:16:00.652Z,82.09
2023-07-17T21:18:27.966Z,81.73
2023-07-17T21:20:55.493Z,81.81
2023-07-17T21:23:23.111Z,82.08
2023-07-17T21:25:51.045Z,83.18
2023-07-17T21:28:18.903Z,82.84
2023-07-17T21:30:47.005Z,83.47
2023-07-17T21:33:15.502Z,83.60
2023-07-17T21:35:42.590Z,84.18
2023-07-17T21:38:10.958Z,84.29
2023-07-17T21:40:39.874Z,84.46
2023-07-17T21:43:07.261Z,83.81
2023-07-17T21:45:34.766Z,83.15
2023-07-17T21:48:02.515Z,82.61
2023-07-17T21:50:29.635Z,82.34
2023-07-17T21:52:57.116Z,81.65
2023-07-17T21:55:24.358Z,82.11
2023-07-17T21:57:52.230Z,81.66
2023-07-17T22:00:23.263Z,81.41
2023-07-17T22:02:51.015Z,81.13
2023-07-17T22:08:48.782Z,81.12
2023-07-17T22:11:19.370Z,81.26
2023-07-17T22:13:48.480Z,81.45
2023-07-17T22:16:18.602Z,81.95
2023-07-17T22:18:46.296Z,82.31
2023-07-17T22:21:13.909Z,83.26
2023-07-17T22:23:42.031Z,83.49
2023-07-17T22:26:11.193Z,84.43
2023-07-17T22:28:38.816Z,85.53
2023-07-17T22:31:07.298Z,86.43
2023-07-17T22:33:34.989Z,87.06
2023-07-17T22:36:02.605Z,87.66
2023-07-17T22:38:30.901Z,89.78
2023-07-17T22:40:58.627Z,90.05
2023-07-17T22:43:26.271Z,89.23
2023-07-17T22:45:54.327Z,89.58
2023-07-17T22:48:21.994Z,89.43
2023-07-17T22:50:49.957Z,90.19
2023-07-17T22:53:17.895Z,90.95
2023-07-17T22:55:46.152Z,91.13
2023-07-17T22:58:14.140Z,91.80
2023-07-17T23:00:42.108Z,92.02
2023-07-17T23:03:09.800Z,92.82
2023-07-17T23:05:37.718Z,94.21
2023-07-17T23:08:06.256Z,93.28
2023-07-17T23:10:35.111Z,92.36
2023-07-17T23:13:02.702Z,91.77
2023-07-17T23:15:31.003Z,91.71
2023-07-17T23:17:58.722Z,92.11
2023-07-17T23:20:26.575Z,92.62
2023-07-17T23:22:58.401Z,92.90
2023-07-17T23:25:26.148Z,91.43
2023-07-17T23:27:54.106Z,91.78
2023-07-17T23:30:23.038Z,91.21
2023-07-17T23:32:50.762Z,91.71
2023-07-17T23:35:20.414Z,91.32
2023-07-17T23:37:48.261Z,90.74
2023-07-17T23:40:17.213Z,91.35
2023-07-17T23:42:59.244Z,90.79
2023-07-17T23:45:27.603Z,90.65
2023-07-17T23:47:58.530Z,91.10
2023-07-17T23:50:26.080Z,91.64
2023-07-17T23:52:53.387Z,91.59
2023-07-17T23:55:24.967Z,91.74
2023-07-17T23:57:52.127Z,91.83
